Hlavní strana
METAR-TAF:

METAR-TAF

Letiště :

Indianapolis, Indiana, Spojené státy americké

zeměpisná šířka: 39-50-37N, zeměpisná délka: 085-53-49W, výška: 263 m

Aktuální stav počasí

Zpráva byla vytvořena před 20 minutami, v 22:55 UTC
Severozápadní vítr 9 kt s nárazy do 16 kt
Teplota 12°C
Vlhkost vzduchu 100%
Tlak 1004 hPa
Viditelnost: 16.1 km
Oblačno až skoro zataženo ve výšce 700 ft
Oblačno až skoro zataženo ve výšce 1900 ft
Zataženo ve výšce 6000 ft

METAR: KMQJ 182255Z AUTO 32009G16KT 10SM BKN007 BKN019 OVC060 12/12 A2966 RMK AO1

Čas: 17:15 (23:15 UTC)


TAF: chybějící

Stav a předpovědi počasí z více než 4 000 letišť (zprávy METAR a TAF).

Červené a žluté tečky na mapě představují dostupné meteorologické stanice.

Když kurzor umístíte na tečku, zobrazí se název stanice.

Pak kliknutím zobrazíte stav a předpověď počasí.

Chcete-li změnit mapu, kliknutím na zelené tlačítko se znaménkem +mapu přiblížíte, kliknutím na zelené tlačítko se znaménkem – mapu oddálíte a kliknutím na zelené šipky přejdete na sousední mapy.


METAR-TAF: